sensor_id;sensor_type;location;lat;lon;timestamp;P1;durP1;ratioP1;P2;durP2;ratioP2
52494;SDS011;38405;53.212;5.660;2023-04-15T00:00:56;14.60;;;5.32;;
52494;SDS011;38405;53.212;5.660;2023-04-15T00:03:22;8.57;;;5.20;;
52494;SDS011;38405;53.212;5.660;2023-04-15T00:05:48;9.80;;;4.95;;
52494;SDS011;38405;53.212;5.660;2023-04-15T00:08:14;11.80;;;5.25;;
52494;SDS011;38405;53.212;5.660;2023-04-15T00:10:39;10.38;;;4.63;;
52494;SDS011;38405;53.212;5.660;2023-04-15T00:13:08;9.50;;;4.80;;
52494;SDS011;38405;53.212;5.660;2023-04-15T00:15:34;9.77;;;4.97;;
52494;SDS011;38405;53.212;5.660;2023-04-15T00:18:00;8.90;;;4.45;;
52494;SDS011;38405;53.212;5.660;2023-04-15T00:20:26;14.35;;;5.07;;
52494;SDS011;38405;53.212;5.660;2023-04-15T00:22:52;16.23;;;5.30;;
52494;SDS011;38405;53.212;5.660;2023-04-15T00:25:18;13.25;;;4.80;;
52494;SDS011;38405;53.212;5.660;2023-04-15T00:27:44;9.38;;;4.70;;
52494;SDS011;38405;53.212;5.660;2023-04-15T00:30:09;10.85;;;5.63;;
52494;SDS011;38405;53.212;5.660;2023-04-15T00:32:35;12.90;;;5.35;;
52494;SDS011;38405;53.212;5.660;2023-04-15T00:35:01;8.80;;;4.60;;
52494;SDS011;38405;53.212;5.660;2023-04-15T00:37:28;12.10;;;5.22;;
52494;SDS011;38405;53.212;5.660;2023-04-15T00:39:53;8.88;;;4.88;;
52494;SDS011;38405;53.212;5.660;2023-04-15T00:42:19;13.35;;;5.60;;
52494;SDS011;38405;53.212;5.660;2023-04-15T00:44:45;12.65;;;5.40;;
52494;SDS011;38405;53.212;5.660;2023-04-15T00:47:11;13.13;;;5.82;;
52494;SDS011;38405;53.212;5.660;2023-04-15T00:49:38;14.00;;;5.82;;
52494;SDS011;38405;53.212;5.660;2023-04-15T00:52:03;9.88;;;5.63;;
52494;SDS011;38405;53.212;5.660;2023-04-15T00:54:29;14.23;;;6.15;;
52494;SDS011;38405;53.212;5.660;2023-04-15T00:56:55;9.13;;;5.43;;
52494;SDS011;38405;53.212;5.660;2023-04-15T00:59:21;14.15;;;6.10;;
52494;SDS011;38405;53.212;5.660;2023-04-15T01:01:47;13.60;;;5.90;;
52494;SDS011;38405;53.212;5.660;2023-04-15T01:04:14;8.65;;;5.95;;
52494;SDS011;38405;53.212;5.660;2023-04-15T01:06:40;13.57;;;6.70;;
52494;SDS011;38405;53.212;5.660;2023-04-15T01:09:06;11.23;;;6.32;;
52494;SDS011;38405;53.212;5.660;2023-04-15T01:11:34;14.88;;;5.63;;
52494;SDS011;38405;53.212;5.660;2023-04-15T01:14:00;9.73;;;6.28;;
52494;SDS011;38405;53.212;5.660;2023-04-15T01:16:27;10.65;;;7.00;;
52494;SDS011;38405;53.212;5.660;2023-04-15T01:18:52;11.48;;;6.78;;
52494;SDS011;38405;53.212;5.660;2023-04-15T01:21:19;12.85;;;6.93;;
52494;SDS011;38405;53.212;5.660;2023-04-15T01:23:46;14.07;;;7.20;;
52494;SDS011;38405;53.212;5.660;2023-04-15T01:26:12;17.60;;;7.32;;
52494;SDS011;38405;53.212;5.660;2023-04-15T01:28:39;11.07;;;6.95;;
52494;SDS011;38405;53.212;5.660;2023-04-15T01:31:09;12.73;;;6.22;;
52494;SDS011;38405;53.212;5.660;2023-04-15T01:33:36;14.65;;;6.60;;
52494;SDS011;38405;53.212;5.660;2023-04-15T01:36:03;11.25;;;7.15;;
52494;SDS011;38405;53.212;5.660;2023-04-15T01:38:29;10.70;;;6.68;;
52494;SDS011;38405;53.212;5.660;2023-04-15T01:40:56;10.93;;;7.32;;
52494;SDS011;38405;53.212;5.660;2023-04-15T01:43:22;11.77;;;7.38;;
52494;SDS011;38405;53.212;5.660;2023-04-15T01:45:47;13.55;;;7.65;;
52494;SDS011;38405;53.212;5.660;2023-04-15T01:48:13;14.50;;;8.45;;
52494;SDS011;38405;53.212;5.660;2023-04-15T01:50:39;11.57;;;7.40;;
52494;SDS011;38405;53.212;5.660;2023-04-15T01:53:04;13.13;;;8.05;;
52494;SDS011;38405;53.212;5.660;2023-04-15T01:55:30;12.30;;;8.23;;
52494;SDS011;38405;53.212;5.660;2023-04-15T01:57:56;19.17;;;9.55;;
52494;SDS011;38405;53.212;5.660;2023-04-15T02:00:22;13.93;;;8.70;;
52494;SDS011;38405;53.212;5.660;2023-04-15T02:02:48;12.93;;;9.00;;
52494;SDS011;38405;53.212;5.660;2023-04-15T02:05:13;14.10;;;9.30;;
52494;SDS011;38405;53.212;5.660;2023-04-15T02:07:40;13.68;;;8.20;;
52494;SDS011;38405;53.212;5.660;2023-04-15T02:10:07;14.10;;;8.40;;
52494;SDS011;38405;53.212;5.660;2023-04-15T02:12:34;13.98;;;9.27;;
52494;SDS011;38405;53.212;5.660;2023-04-15T02:15:00;12.50;;;8.93;;
52494;SDS011;38405;53.212;5.660;2023-04-15T02:17:26;15.13;;;9.40;;
52494;SDS011;38405;53.212;5.660;2023-04-15T02:19:51;19.33;;;8.98;;
52494;SDS011;38405;53.212;5.660;2023-04-15T02:22:19;17.10;;;9.75;;
52494;SDS011;38405;53.212;5.660;2023-04-15T02:24:45;17.38;;;9.10;;
52494;SDS011;38405;53.212;5.660;2023-04-15T02:27:14;14.35;;;8.70;;
52494;SDS011;38405;53.212;5.660;2023-04-15T02:29:40;13.98;;;9.00;;
52494;SDS011;38405;53.212;5.660;2023-04-15T02:32:07;16.55;;;9.55;;
52494;SDS011;38405;53.212;5.660;2023-04-15T02:34:32;14.00;;;10.07;;
52494;SDS011;38405;53.212;5.660;2023-04-15T02:36:58;12.57;;;9.65;;
52494;SDS011;38405;53.212;5.660;2023-04-15T02:39:23;15.25;;;9.90;;
52494;SDS011;38405;53.212;5.660;2023-04-15T02:41:49;15.40;;;10.23;;
52494;SDS011;38405;53.212;5.660;2023-04-15T02:44:17;16.02;;;9.77;;
52494;SDS011;38405;53.212;5.660;2023-04-15T02:46:47;14.57;;;9.73;;
52494;SDS011;38405;53.212;5.660;2023-04-15T02:49:19;12.48;;;9.63;;
52494;SDS011;38405;53.212;5.660;2023-04-15T02:51:45;14.85;;;9.93;;
52494;SDS011;38405;53.212;5.660;2023-04-15T02:54:14;14.50;;;9.13;;
52494;SDS011;38405;53.212;5.660;2023-04-15T02:56:40;17.23;;;10.68;;
52494;SDS011;38405;53.212;5.660;2023-04-15T02:59:06;22.40;;;10.30;;
52494;SDS011;38405;53.212;5.660;2023-04-15T03:01:32;19.02;;;11.50;;
52494;SDS011;38405;53.212;5.660;2023-04-15T03:03:57;17.98;;;10.25;;
52494;SDS011;38405;53.212;5.660;2023-04-15T03:06:23;18.55;;;10.65;;
52494;SDS011;38405;53.212;5.660;2023-04-15T03:08:49;14.18;;;10.52;;
52494;SDS011;38405;53.212;5.660;2023-04-15T03:11:15;15.65;;;10.18;;
52494;SDS011;38405;53.212;5.660;2023-04-15T03:13:41;17.52;;;9.65;;
52494;SDS011;38405;53.212;5.660;2023-04-15T03:16:07;15.98;;;10.05;;
52494;SDS011;38405;53.212;5.660;2023-04-15T03:18:33;16.27;;;10.20;;
52494;SDS011;38405;53.212;5.660;2023-04-15T03:20:59;15.40;;;9.43;;
52494;SDS011;38405;53.212;5.660;2023-04-15T03:23:25;16.33;;;9.68;;
52494;SDS011;38405;53.212;5.660;2023-04-15T03:25:51;15.77;;;10.95;;
52494;SDS011;38405;53.212;5.660;2023-04-15T03:28:18;17.10;;;9.93;;
52494;SDS011;38405;53.212;5.660;2023-04-15T03:30:44;19.98;;;11.00;;
52494;SDS011;38405;53.212;5.660;2023-04-15T03:33:10;16.77;;;11.35;;
52494;SDS011;38405;53.212;5.660;2023-04-15T03:35:36;16.23;;;10.80;;
52494;SDS011;38405;53.212;5.660;2023-04-15T03:38:02;16.27;;;9.45;;
52494;SDS011;38405;53.212;5.660;2023-04-15T03:40:27;16.27;;;11.02;;
52494;SDS011;38405;53.212;5.660;2023-04-15T03:42:53;15.63;;;9.90;;
52494;SDS011;38405;53.212;5.660;2023-04-15T03:45:19;15.73;;;10.05;;
52494;SDS011;38405;53.212;5.660;2023-04-15T03:47:44;24.13;;;11.25;;
52494;SDS011;38405;53.212;5.660;2023-04-15T03:50:10;16.02;;;10.77;;
52494;SDS011;38405;53.212;5.660;2023-04-15T03:52:36;16.33;;;10.80;;
52494;SDS011;38405;53.212;5.660;2023-04-15T03:55:02;19.45;;;12.15;;
52494;SDS011;38405;53.212;5.660;2023-04-15T03:57:28;17.67;;;11.13;;
52494;SDS011;38405;53.212;5.660;2023-04-15T03:59:53;19.23;;;12.32;;
52494;SDS011;38405;53.212;5.660;2023-04-15T04:02:19;18.25;;;11.23;;
52494;SDS011;38405;53.212;5.660;2023-04-15T04:04:44;19.10;;;11.38;;
52494;SDS011;38405;53.212;5.660;2023-04-15T04:07:16;15.27;;;11.07;;
52494;SDS011;38405;53.212;5.660;2023-04-15T04:09:42;14.65;;;11.02;;
52494;SDS011;38405;53.212;5.660;2023-04-15T04:12:08;14.55;;;10.60;;
52494;SDS011;38405;53.212;5.660;2023-04-15T04:14:33;14.90;;;10.60;;
52494;SDS011;38405;53.212;5.660;2023-04-15T04:16:59;17.70;;;11.10;;
52494;SDS011;38405;53.212;5.660;2023-04-15T04:19:25;14.55;;;10.57;;
52494;SDS011;38405;53.212;5.660;2023-04-15T04:21:51;17.27;;;11.48;;
52494;SDS011;38405;53.212;5.660;2023-04-15T04:24:16;20.73;;;12.32;;
52494;SDS011;38405;53.212;5.660;2023-04-15T04:26:42;15.02;;;10.82;;
52494;SDS011;38405;53.212;5.660;2023-04-15T04:29:08;15.48;;;10.93;;
52494;SDS011;38405;53.212;5.660;2023-04-15T04:31:33;18.35;;;11.90;;
52494;SDS011;38405;53.212;5.660;2023-04-15T04:33:59;18.65;;;11.75;;
52494;SDS011;38405;53.212;5.660;2023-04-15T04:36:25;18.70;;;11.18;;
52494;SDS011;38405;53.212;5.660;2023-04-15T04:38:50;17.65;;;12.18;;
52494;SDS011;38405;53.212;5.660;2023-04-15T04:41:16;16.20;;;11.02;;
52494;SDS011;38405;53.212;5.660;2023-04-15T04:43:42;15.57;;;10.93;;
52494;SDS011;38405;53.212;5.660;2023-04-15T04:46:08;16.75;;;11.45;;
52494;SDS011;38405;53.212;5.660;2023-04-15T04:48:34;17.33;;;11.70;;
52494;SDS011;38405;53.212;5.660;2023-04-15T04:51:00;17.77;;;11.93;;
52494;SDS011;38405;53.212;5.660;2023-04-15T04:53:26;15.90;;;11.40;;
52494;SDS011;38405;53.212;5.660;2023-04-15T04:55:52;15.68;;;11.02;;
52494;SDS011;38405;53.212;5.660;2023-04-15T04:58:17;16.35;;;11.48;;
52494;SDS011;38405;53.212;5.660;2023-04-15T05:00:43;16.65;;;11.10;;
52494;SDS011;38405;53.212;5.660;2023-04-15T05:03:09;21.05;;;11.70;;
52494;SDS011;38405;53.212;5.660;2023-04-15T05:05:35;14.20;;;10.38;;
52494;SDS011;38405;53.212;5.660;2023-04-15T05:08:03;15.48;;;11.15;;
52494;SDS011;38405;53.212;5.660;2023-04-15T05:10:29;17.95;;;12.55;;
52494;SDS011;38405;53.212;5.660;2023-04-15T05:12:55;17.42;;;11.85;;
52494;SDS011;38405;53.212;5.660;2023-04-15T05:15:21;17.67;;;11.80;;
52494;SDS011;38405;53.212;5.660;2023-04-15T05:17:47;18.80;;;12.85;;
52494;SDS011;38405;53.212;5.660;2023-04-15T05:20:12;14.88;;;10.98;;
52494;SDS011;38405;53.212;5.660;2023-04-15T05:22:38;15.70;;;11.77;;
52494;SDS011;38405;53.212;5.660;2023-04-15T05:25:04;15.90;;;11.25;;
52494;SDS011;38405;53.212;5.660;2023-04-15T05:27:30;17.15;;;12.80;;
52494;SDS011;38405;53.212;5.660;2023-04-15T05:29:55;21.33;;;13.23;;
52494;SDS011;38405;53.212;5.660;2023-04-15T05:32:21;17.02;;;12.57;;
52494;SDS011;38405;53.212;5.660;2023-04-15T05:34:47;17.85;;;12.10;;
52494;SDS011;38405;53.212;5.660;2023-04-15T05:37:12;21.08;;;13.20;;
52494;SDS011;38405;53.212;5.660;2023-04-15T05:39:38;17.85;;;12.68;;
52494;SDS011;38405;53.212;5.660;2023-04-15T05:42:04;19.55;;;12.52;;
52494;SDS011;38405;53.212;5.660;2023-04-15T05:44:30;18.13;;;12.82;;
52494;SDS011;38405;53.212;5.660;2023-04-15T05:46:56;16.42;;;11.55;;
52494;SDS011;38405;53.212;5.660;2023-04-15T05:49:22;15.13;;;11.82;;
52494;SDS011;38405;53.212;5.660;2023-04-15T05:51:47;15.48;;;11.18;;
52494;SDS011;38405;53.212;5.660;2023-04-15T05:54:13;17.33;;;10.85;;
52494;SDS011;38405;53.212;5.660;2023-04-15T05:56:39;16.65;;;11.18;;
52494;SDS011;38405;53.212;5.660;2023-04-15T05:59:05;18.75;;;11.00;;
52494;SDS011;38405;53.212;5.660;2023-04-15T06:01:32;16.08;;;9.93;;
52494;SDS011;38405;53.212;5.660;2023-04-15T06:03:58;14.05;;;10.43;;
52494;SDS011;38405;53.212;5.660;2023-04-15T06:06:24;12.95;;;9.30;;
52494;SDS011;38405;53.212;5.660;2023-04-15T06:08:51;13.35;;;9.15;;
52494;SDS011;38405;53.212;5.660;2023-04-15T06:11:17;11.90;;;7.72;;
52494;SDS011;38405;53.212;5.660;2023-04-15T06:13:45;12.63;;;8.05;;
52494;SDS011;38405;53.212;5.660;2023-04-15T06:16:10;8.45;;;6.93;;
52494;SDS011;38405;53.212;5.660;2023-04-15T06:18:36;10.85;;;6.65;;
52494;SDS011;38405;53.212;5.660;2023-04-15T06:21:02;13.77;;;6.88;;
52494;SDS011;38405;53.212;5.660;2023-04-15T06:23:27;8.52;;;6.05;;
52494;SDS011;38405;53.212;5.660;2023-04-15T06:25:53;8.57;;;6.45;;
52494;SDS011;38405;53.212;5.660;2023-04-15T06:28:19;8.32;;;5.97;;
52494;SDS011;38405;53.212;5.660;2023-04-15T06:30:45;8.52;;;6.10;;
52494;SDS011;38405;53.212;5.660;2023-04-15T06:33:10;12.73;;;5.90;;
52494;SDS011;38405;53.212;5.660;2023-04-15T06:35:36;7.35;;;6.03;;
52494;SDS011;38405;53.212;5.660;2023-04-15T06:38:03;7.45;;;6.30;;
52494;SDS011;38405;53.212;5.660;2023-04-15T06:40:28;10.05;;;5.78;;
52494;SDS011;38405;53.212;5.660;2023-04-15T06:42:54;11.48;;;6.85;;
52494;SDS011;38405;53.212;5.660;2023-04-15T06:45:20;10.57;;;7.10;;
52494;SDS011;38405;53.212;5.660;2023-04-15T06:47:46;10.73;;;7.55;;
52494;SDS011;38405;53.212;5.660;2023-04-15T06:50:11;13.02;;;8.43;;
52494;SDS011;38405;53.212;5.660;2023-04-15T06:52:37;11.65;;;8.13;;
52494;SDS011;38405;53.212;5.660;2023-04-15T06:55:03;11.15;;;8.60;;
52494;SDS011;38405;53.212;5.660;2023-04-15T06:57:29;12.00;;;8.98;;
52494;SDS011;38405;53.212;5.660;2023-04-15T06:59:55;12.52;;;9.23;;
52494;SDS011;38405;53.212;5.660;2023-04-15T07:02:20;14.07;;;9.75;;
52494;SDS011;38405;53.212;5.660;2023-04-15T07:04:46;14.80;;;10.27;;
52494;SDS011;38405;53.212;5.660;2023-04-15T07:07:12;15.00;;;9.93;;
52494;SDS011;38405;53.212;5.660;2023-04-15T07:09:39;13.80;;;9.70;;
52494;SDS011;38405;53.212;5.660;2023-04-15T07:12:05;12.45;;;8.93;;
52494;SDS011;38405;53.212;5.660;2023-04-15T07:14:31;12.13;;;9.13;;
52494;SDS011;38405;53.212;5.660;2023-04-15T07:16:56;14.02;;;9.57;;
52494;SDS011;38405;53.212;5.660;2023-04-15T07:19:22;14.23;;;9.95;;
52494;SDS011;38405;53.212;5.660;2023-04-15T07:21:48;14.18;;;9.50;;
52494;SDS011;38405;53.212;5.660;2023-04-15T07:24:13;16.73;;;10.55;;
52494;SDS011;38405;53.212;5.660;2023-04-15T07:26:42;15.80;;;10.50;;
52494;SDS011;38405;53.212;5.660;2023-04-15T07:29:08;13.73;;;9.57;;
52494;SDS011;38405;53.212;5.660;2023-04-15T07:31:34;15.95;;;10.15;;
52494;SDS011;38405;53.212;5.660;2023-04-15T07:34:01;11.23;;;8.93;;
52494;SDS011;38405;53.212;5.660;2023-04-15T07:36:27;11.18;;;8.73;;
52494;SDS011;38405;53.212;5.660;2023-04-15T07:38:53;12.00;;;8.63;;
52494;SDS011;38405;53.212;5.660;2023-04-15T07:41:19;13.32;;;9.02;;
52494;SDS011;38405;53.212;5.660;2023-04-15T07:43:45;10.85;;;8.10;;
52494;SDS011;38405;53.212;5.660;2023-04-15T07:46:12;8.60;;;6.78;;
52494;SDS011;38405;53.212;5.660;2023-04-15T07:48:38;11.00;;;7.32;;
52494;SDS011;38405;53.212;5.660;2023-04-15T07:51:04;11.65;;;7.38;;
52494;SDS011;38405;53.212;5.660;2023-04-15T07:53:30;8.98;;;6.57;;
52494;SDS011;38405;53.212;5.660;2023-04-15T07:55:57;8.13;;;6.60;;
52494;SDS011;38405;53.212;5.660;2023-04-15T07:58:23;9.07;;;5.85;;
52494;SDS011;38405;53.212;5.660;2023-04-15T08:00:49;9.02;;;6.03;;
52494;SDS011;38405;53.212;5.660;2023-04-15T08:03:14;8.55;;;5.35;;
52494;SDS011;38405;53.212;5.660;2023-04-15T08:05:40;6.32;;;4.60;;
52494;SDS011;38405;53.212;5.660;2023-04-15T08:08:06;5.65;;;4.90;;
52494;SDS011;38405;53.212;5.660;2023-04-15T08:10:32;9.90;;;4.78;;
52494;SDS011;38405;53.212;5.660;2023-04-15T08:12:58;7.68;;;4.70;;
52494;SDS011;38405;53.212;5.660;2023-04-15T08:15:24;5.45;;;3.65;;
52494;SDS011;38405;53.212;5.660;2023-04-15T08:17:53;7.50;;;4.20;;
52494;SDS011;38405;53.212;5.660;2023-04-15T08:20:19;8.25;;;4.05;;
52494;SDS011;38405;53.212;5.660;2023-04-15T08:22:44;6.25;;;4.05;;
52494;SDS011;38405;53.212;5.660;2023-04-15T08:25:11;5.07;;;3.42;;
52494;SDS011;38405;53.212;5.660;2023-04-15T08:27:37;3.47;;;3.15;;
52494;SDS011;38405;53.212;5.660;2023-04-15T08:30:03;4.20;;;3.28;;
52494;SDS011;38405;53.212;5.660;2023-04-15T08:32:29;6.05;;;3.78;;
52494;SDS011;38405;53.212;5.660;2023-04-15T08:34:55;5.30;;;3.63;;
52494;SDS011;38405;53.212;5.660;2023-04-15T08:37:20;6.80;;;3.75;;
52494;SDS011;38405;53.212;5.660;2023-04-15T08:39:47;7.10;;;3.53;;
52494;SDS011;38405;53.212;5.660;2023-04-15T08:42:16;5.60;;;3.20;;
52494;SDS011;38405;53.212;5.660;2023-04-15T08:44:43;4.90;;;3.92;;
52494;SDS011;38405;53.212;5.660;2023-04-15T08:47:12;5.47;;;3.40;;
52494;SDS011;38405;53.212;5.660;2023-04-15T08:49:39;4.90;;;3.17;;
52494;SDS011;38405;53.212;5.660;2023-04-15T08:52:07;6.10;;;3.45;;
52494;SDS011;38405;53.212;5.660;2023-04-15T08:54:33;5.07;;;3.58;;
52494;SDS011;38405;53.212;5.660;2023-04-15T08:56:59;4.03;;;3.60;;
52494;SDS011;38405;53.212;5.660;2023-04-15T08:59:26;7.88;;;3.95;;
52494;SDS011;38405;53.212;5.660;2023-04-15T09:01:54;5.05;;;3.67;;
52494;SDS011;38405;53.212;5.660;2023-04-15T09:04:22;5.22;;;3.83;;
52494;SDS011;38405;53.212;5.660;2023-04-15T09:06:48;7.57;;;3.97;;
52494;SDS011;38405;53.212;5.660;2023-04-15T09:09:16;8.32;;;4.65;;
52494;SDS011;38405;53.212;5.660;2023-04-15T09:11:41;6.13;;;4.00;;
52494;SDS011;38405;53.212;5.660;2023-04-15T09:14:07;7.75;;;4.00;;
52494;SDS011;38405;53.212;5.660;2023-04-15T09:19:27;6.03;;;3.25;;
52494;SDS011;38405;53.212;5.660;2023-04-15T09:21:54;5.70;;;4.28;;
52494;SDS011;38405;53.212;5.660;2023-04-15T09:24:23;5.82;;;3.97;;
52494;SDS011;38405;53.212;5.660;2023-04-15T09:26:51;5.50;;;3.30;;
52494;SDS011;38405;53.212;5.660;2023-04-15T09:29:18;6.90;;;3.47;;
52494;SDS011;38405;53.212;5.660;2023-04-15T09:31:44;5.78;;;3.75;;
52494;SDS011;38405;53.212;5.660;2023-04-15T09:34:10;6.00;;;3.42;;
52494;SDS011;38405;53.212;5.660;2023-04-15T09:36:55;4.22;;;3.35;;
52494;SDS011;38405;53.212;5.660;2023-04-15T09:39:21;6.35;;;3.85;;
52494;SDS011;38405;53.212;5.660;2023-04-15T09:42:03;4.60;;;3.30;;
52494;SDS011;38405;53.212;5.660;2023-04-15T09:44:30;7.20;;;3.60;;
52494;SDS011;38405;53.212;5.660;2023-04-15T09:46:56;6.80;;;3.50;;
52494;SDS011;38405;53.212;5.660;2023-04-15T09:49:22;5.90;;;3.58;;
52494;SDS011;38405;53.212;5.660;2023-04-15T09:51:47;8.80;;;3.72;;
52494;SDS011;38405;53.212;5.660;2023-04-15T09:54:17;6.00;;;3.67;;
52494;SDS011;38405;53.212;5.660;2023-04-15T09:56:45;5.70;;;3.20;;
52494;SDS011;38405;53.212;5.660;2023-04-15T09:59:10;3.35;;;2.70;;
52494;SDS011;38405;53.212;5.660;2023-04-15T10:01:37;5.85;;;2.78;;
52494;SDS011;38405;53.212;5.660;2023-04-15T10:04:03;6.82;;;3.15;;
52494;SDS011;38405;53.212;5.660;2023-04-15T10:06:30;4.90;;;3.10;;
52494;SDS011;38405;53.212;5.660;2023-04-15T10:08:59;3.97;;;2.65;;
52494;SDS011;38405;53.212;5.660;2023-04-15T10:11:28;4.43;;;2.92;;
52494;SDS011;38405;53.212;5.660;2023-04-15T10:13:55;4.35;;;2.65;;
52494;SDS011;38405;53.212;5.660;2023-04-15T10:16:21;5.47;;;2.90;;
52494;SDS011;38405;53.212;5.660;2023-04-15T10:18:53;4.53;;;2.70;;
52494;SDS011;38405;53.212;5.660;2023-04-15T10:21:20;4.00;;;2.00;;
52494;SDS011;38405;53.212;5.660;2023-04-15T10:23:47;4.10;;;1.77;;
52494;SDS011;38405;53.212;5.660;2023-04-15T10:26:14;5.03;;;1.90;;
52494;SDS011;38405;53.212;5.660;2023-04-15T10:28:41;4.10;;;1.98;;
52494;SDS011;38405;53.212;5.660;2023-04-15T10:31:12;3.22;;;2.00;;
52494;SDS011;38405;53.212;5.660;2023-04-15T10:33:42;6.47;;;2.05;;
52494;SDS011;38405;53.212;5.660;2023-04-15T10:36:10;2.35;;;1.70;;
52494;SDS011;38405;53.212;5.660;2023-04-15T10:38:40;7.20;;;2.05;;
52494;SDS011;38405;53.212;5.660;2023-04-15T10:43:52;5.00;;;1.55;;
52494;SDS011;38405;53.212;5.660;2023-04-15T10:46:20;2.03;;;1.73;;
52494;SDS011;38405;53.212;5.660;2023-04-15T10:48:47;3.08;;;1.58;;
52494;SDS011;38405;53.212;5.660;2023-04-15T10:51:13;2.63;;;1.80;;
52494;SDS011;38405;53.212;5.660;2023-04-15T10:53:40;5.13;;;1.70;;
52494;SDS011;38405;53.212;5.660;2023-04-15T10:56:16;4.40;;;1.83;;
52494;SDS011;38405;53.212;5.660;2023-04-15T10:58:42;2.88;;;1.70;;
52494;SDS011;38405;53.212;5.660;2023-04-15T11:01:08;2.17;;;1.50;;
52494;SDS011;38405;53.212;5.660;2023-04-15T11:03:37;3.10;;;1.60;;
52494;SDS011;38405;53.212;5.660;2023-04-15T11:06:05;7.90;;;1.70;;
52494;SDS011;38405;53.212;5.660;2023-04-15T11:11:20;5.30;;;1.60;;
52494;SDS011;38405;53.212;5.660;2023-04-15T11:13:49;2.40;;;1.63;;
52494;SDS011;38405;53.212;5.660;2023-04-15T11:16:16;6.32;;;1.90;;
52494;SDS011;38405;53.212;5.660;2023-04-15T11:18:52;3.08;;;1.80;;
52494;SDS011;38405;53.212;5.660;2023-04-15T11:21:19;2.70;;;1.67;;
52494;SDS011;38405;53.212;5.660;2023-04-15T11:23:50;5.47;;;1.88;;
52494;SDS011;38405;53.212;5.660;2023-04-15T11:26:15;4.45;;;1.90;;
52494;SDS011;38405;53.212;5.660;2023-04-15T11:28:42;4.35;;;1.55;;
52494;SDS011;38405;53.212;5.660;2023-04-15T11:31:12;3.17;;;1.73;;
52494;SDS011;38405;53.212;5.660;2023-04-15T11:36:17;4.70;;;1.63;;
52494;SDS011;38405;53.212;5.660;2023-04-15T11:38:43;7.05;;;2.17;;
52494;SDS011;38405;53.212;5.660;2023-04-15T11:41:11;4.18;;;2.03;;
52494;SDS011;38405;53.212;5.660;2023-04-15T11:43:37;4.78;;;1.80;;
52494;SDS011;38405;53.212;5.660;2023-04-15T11:46:03;4.30;;;2.10;;
52494;SDS011;38405;53.212;5.660;2023-04-15T11:48:33;2.30;;;1.50;;
52494;SDS011;38405;53.212;5.660;2023-04-15T11:51:03;3.70;;;1.48;;
52494;SDS011;38405;53.212;5.660;2023-04-15T11:56:10;5.50;;;1.55;;
52494;SDS011;38405;53.212;5.660;2023-04-15T11:58:45;11.05;;;2.53;;
52494;SDS011;38405;53.212;5.660;2023-04-15T12:01:11;5.93;;;2.00;;
52494;SDS011;38405;53.212;5.660;2023-04-15T12:03:41;5.60;;;1.77;;
52494;SDS011;38405;53.212;5.660;2023-04-15T12:06:11;5.95;;;1.77;;
52494;SDS011;38405;53.212;5.660;2023-04-15T12:13:53;6.97;;;1.70;;
52494;SDS011;38405;53.212;5.660;2023-04-15T12:16:24;5.60;;;1.30;;
52494;SDS011;38405;53.212;5.660;2023-04-15T12:18:50;6.85;;;1.52;;
52494;SDS011;38405;53.212;5.660;2023-04-15T12:21:20;6.32;;;1.52;;
52494;SDS011;38405;53.212;5.660;2023-04-15T12:23:56;5.93;;;1.33;;
52494;SDS011;38405;53.212;5.660;2023-04-15T12:26:30;8.63;;;1.70;;
52494;SDS011;38405;53.212;5.660;2023-04-15T12:29:02;4.65;;;1.55;;
52494;SDS011;38405;53.212;5.660;2023-04-15T12:31:28;7.20;;;1.80;;
52494;SDS011;38405;53.212;5.660;2023-04-15T12:33:55;5.03;;;1.50;;
52494;SDS011;38405;53.212;5.660;2023-04-15T12:36:22;9.38;;;2.05;;
52494;SDS011;38405;53.212;5.660;2023-04-15T12:38:48;8.13;;;1.65;;
52494;SDS011;38405;53.212;5.660;2023-04-15T12:41:15;7.43;;;1.48;;
52494;SDS011;38405;53.212;5.660;2023-04-15T12:43:42;4.55;;;1.40;;
52494;SDS011;38405;53.212;5.660;2023-04-15T12:46:09;3.08;;;1.20;;
52494;SDS011;38405;53.212;5.660;2023-04-15T12:48:35;9.45;;;2.03;;
52494;SDS011;38405;53.212;5.660;2023-04-15T12:51:00;10.13;;;2.03;;
52494;SDS011;38405;53.212;5.660;2023-04-15T12:53:26;8.10;;;1.73;;
52494;SDS011;38405;53.212;5.660;2023-04-15T12:55:52;8.30;;;1.73;;
52494;SDS011;38405;53.212;5.660;2023-04-15T12:58:18;6.28;;;1.98;;
52494;SDS011;38405;53.212;5.660;2023-04-15T13:00:44;5.50;;;1.70;;
52494;SDS011;38405;53.212;5.660;2023-04-15T13:03:09;3.47;;;1.40;;
52494;SDS011;38405;53.212;5.660;2023-04-15T13:05:36;8.90;;;1.33;;
52494;SDS011;38405;53.212;5.660;2023-04-15T13:08:03;5.95;;;1.77;;
52494;SDS011;38405;53.212;5.660;2023-04-15T13:10:30;12.10;;;2.15;;
52494;SDS011;38405;53.212;5.660;2023-04-15T13:12:56;11.13;;;1.77;;
52494;SDS011;38405;53.212;5.660;2023-04-15T13:15:21;10.52;;;1.95;;
52494;SDS011;38405;53.212;5.660;2023-04-15T13:17:47;7.85;;;1.50;;
52494;SDS011;38405;53.212;5.660;2023-04-15T13:20:13;6.80;;;1.52;;
52494;SDS011;38405;53.212;5.660;2023-04-15T13:22:39;4.75;;;1.10;;
52494;SDS011;38405;53.212;5.660;2023-04-15T13:25:05;8.40;;;1.60;;
52494;SDS011;38405;53.212;5.660;2023-04-15T13:27:32;10.20;;;1.70;;
52494;SDS011;38405;53.212;5.660;2023-04-15T13:29:57;9.95;;;1.85;;
52494;SDS011;38405;53.212;5.660;2023-04-15T13:32:23;12.88;;;1.85;;
52494;SDS011;38405;53.212;5.660;2023-04-15T13:34:49;8.15;;;1.73;;
52494;SDS011;38405;53.212;5.660;2023-04-15T13:37:15;11.23;;;2.03;;
52494;SDS011;38405;53.212;5.660;2023-04-15T13:39:41;7.45;;;1.45;;
52494;SDS011;38405;53.212;5.660;2023-04-15T13:42:07;16.92;;;2.63;;
52494;SDS011;38405;53.212;5.660;2023-04-15T13:44:33;7.85;;;1.80;;
52494;SDS011;38405;53.212;5.660;2023-04-15T13:46:59;8.38;;;1.88;;
52494;SDS011;38405;53.212;5.660;2023-04-15T13:49:25;9.48;;;1.38;;
52494;SDS011;38405;53.212;5.660;2023-04-15T13:51:50;9.13;;;1.50;;
52494;SDS011;38405;53.212;5.660;2023-04-15T13:54:16;9.82;;;1.70;;
52494;SDS011;38405;53.212;5.660;2023-04-15T13:56:42;6.55;;;1.60;;
52494;SDS011;38405;53.212;5.660;2023-04-15T13:59:07;5.72;;;1.30;;
52494;SDS011;38405;53.212;5.660;2023-04-15T14:01:33;6.68;;;1.40;;
52494;SDS011;38405;53.212;5.660;2023-04-15T14:03:59;7.40;;;1.30;;
52494;SDS011;38405;53.212;5.660;2023-04-15T14:06:25;8.82;;;1.88;;
52494;SDS011;38405;53.212;5.660;2023-04-15T14:08:51;14.80;;;1.95;;
52494;SDS011;38405;53.212;5.660;2023-04-15T14:11:17;7.50;;;1.50;;
52494;SDS011;38405;53.212;5.660;2023-04-15T14:13:43;12.27;;;2.03;;
52494;SDS011;38405;53.212;5.660;2023-04-15T14:16:08;9.65;;;1.60;;
52494;SDS011;38405;53.212;5.660;2023-04-15T14:18:34;9.90;;;1.90;;
52494;SDS011;38405;53.212;5.660;2023-04-15T14:21:01;7.35;;;1.73;;
52494;SDS011;38405;53.212;5.660;2023-04-15T14:23:27;6.57;;;1.88;;
52494;SDS011;38405;53.212;5.660;2023-04-15T14:25:53;3.83;;;1.20;;
52494;SDS011;38405;53.212;5.660;2023-04-15T14:28:18;11.77;;;2.17;;
52494;SDS011;38405;53.212;5.660;2023-04-15T14:30:44;7.55;;;1.40;;
52494;SDS011;38405;53.212;5.660;2023-04-15T14:33:10;12.48;;;1.67;;
52494;SDS011;38405;53.212;5.660;2023-04-15T14:35:36;11.27;;;1.75;;
52494;SDS011;38405;53.212;5.660;2023-04-15T14:38:02;16.13;;;2.13;;
52494;SDS011;38405;53.212;5.660;2023-04-15T14:40:28;6.55;;;1.73;;
52494;SDS011;38405;53.212;5.660;2023-04-15T14:42:53;6.50;;;1.48;;
52494;SDS011;38405;53.212;5.660;2023-04-15T14:45:19;10.13;;;1.67;;
52494;SDS011;38405;53.212;5.660;2023-04-15T14:47:45;7.20;;;1.40;;
52494;SDS011;38405;53.212;5.660;2023-04-15T14:50:11;3.38;;;1.45;;
52494;SDS011;38405;53.212;5.660;2023-04-15T14:52:37;5.40;;;1.50;;